PPIZ METAR and TAF weather

Enter ICAO airport designator
Station Type Date Time Source
PPIZ METAR 2021/08/04 17:56 UTC NOAA

PPIZ 041756Z AUTO 05011KT 10SM CLR 18/16 A2997 RMK AO2 SLP154 6//// T01830156 10183 20150 56006 PNO $


Station Type Date Time Source
PPIZ Decoded METAR 2021/08/04 17:56 UTC NOAA

Point Lay, Point Lay LRRS Airport, AK, United States (PPIZ) 69-43N 163-00W
Aug 04, 2021 - 01:56 PM EDT / 2021.08.04 1756 UTC
Wind: from the NE (050 degrees) at 13 MPH (11 KT):0
Visibility: 10 mile(s):0
Sky conditions: clear
Temperature: 64.9 F (18.3 C)
Dew Point: 60.1 F (15.6 C)
Relative Humidity: 84%
Pressure (altimeter): 29.97 in. Hg (1014 hPa)
Pressure tendency: 0.02 inches (0.6 hPa) lower than three hours ago
ob: PPIZ 041756Z AUTO 05011KT 10SM CLR 18/16 A2997 RMK AO2 SLP154 6//// T01830156 10183 20150 56006 PNO
cycle: 18

Station Type Date Time Source
PPIZ TAF UTC NOAA

Error!

Example: see airport list